Terminal Aerodrome Forecast
Issued by NWS

Home | Current Version | Previous Version | Text Only | Print | Product List | Glossary On
Versions: 1 2 3 4 5 6 7 8 9 10 11 12 13
000
FTUS45 KBYZ 250532
TAFLVM
TAF
KLVM 250532Z 2506/2606 34006KT P6SM SCT100
     FM251200 21014KT P6SM FEW100
     FM251800 22020G30KT P6SM FEW100=

USA.gov is the U.S. government's official web portal to all federal, state and local government web resources and services.